Tyler, TX (75703)

4:52 PM CST en Noviembre 26, 2014 (GMT -0600)
Old J'ville/S. Robertson | Change Station
CLOSE
Current Station
Estación meteorológica personal
Location: Tyler, TX
Altura: 574 ft
Estaciones meteorológicas cercanas

Alt 574 ft 32.31 °N, 95.32 °W | Updated 9 seconds ago

Despejado
Despejado
64.5 ° F
Sensación térmica 64.5 ° F
N
3.0
Viento Variable Viento desde Oeste
Gusts 4.0 mph

Hoy
Alta -- | Baja -- ° F
--% Posibilidad de precipitaciones
Ayer
Alta -- | Baja -- ° F
Precip. -- pul
7:00 AM 5:16 PM
Creciente, 23% visible
Presión 30.17 pul
Visibilidad 10.0 Millas
Nubes Despejado
Punto de rocío 34 ° F
Humedad 32%
Precipitaciones 0.00 pul
Espesor de la nieve No disponible.
UV 1 de una escala de 12
Polen 2.10 de una escala de 12
Calidad del aire No disponible.
Flu Activity No disponible.
METAR KTYR 262153Z 27006KT 10SM CLR 19/M02 A3017 RMK AO2 SLP214 T01891017

More Conditions Fewer Conditions

Presión 30.17 pul
Visibilidad 10.0 Millas
Nubes Despejado
Punto de rocío 34 ° F
Humedad 32%
Precipitaciones 0.00 pul
Espesor de la nieve No disponible.
UV 1 de una escala de 12
Polen 2.10 de una escala de 12
Calidad del aire No disponible.
Flu Activity No disponible.
METAR KTYR 262153Z 27006KT 10SM CLR 19/M02 A3017 RMK AO2 SLP214 T01891017

More Conditions Fewer Conditions

10-Day Weather Forecast

Almanac

Astronomía

Nov. 26, 2014 Salida Puesta
Hora real
Crepúsculo civil
Crepúsculo náutico
Crepúsculo astronómico
Luna
Horas de luz
Horas de luz
Tomorrow will be .
, % of the Moon is Illuminated

Extremos de hoy

Máximos del estado Bajos del estado

Community

WunderPhotos

Upload Photos

1,773,908 ¡fotos cargadas!

WunderBlogs® & News

Nearby

Calidad del aire

  Calidad del aire Índice AQ Contaminante
Not available.

Grosos de nieve

Estación Profundido Altura

Actividad de terremotos

Ciudad Distance Mag. Tiempo y dato
Magnitud mínima muestra es 2,5.

Temperaturas de aguas costeras

Lugar Temperatura

Estaciones meteorológicas cercanas